sensor_id;sensor_type;location;lat;lon;timestamp;pressure;altitude;pressure_sealevel;temperature;humidity
44453;BME280;30155;52.164;21.236;2023-02-26T00:02:41;99062.04;;;1.27;84.60
44453;BME280;30155;52.164;21.236;2023-02-26T00:07:37;99070.73;;;1.20;84.30
44453;BME280;30155;52.164;21.236;2023-02-26T00:12:31;99081.63;;;1.12;84.21
44453;BME280;30155;52.164;21.236;2023-02-26T00:18:16;99100.55;;;1.05;83.76
44453;BME280;30155;52.164;21.236;2023-02-26T00:22:49;99113.36;;;1.01;83.96
44453;BME280;30155;52.164;21.236;2023-02-26T00:27:45;99118.38;;;0.97;83.80
44453;BME280;30155;52.164;21.236;2023-02-26T00:32:41;99117.48;;;0.90;83.41
44453;BME280;30155;52.164;21.236;2023-02-26T00:42:31;99128.56;;;0.84;83.37
44453;BME280;30155;52.164;21.236;2023-02-26T00:47:49;99130.34;;;0.81;82.91
44453;BME280;30155;52.164;21.236;2023-02-26T00:57:55;99148.95;;;0.76;82.90
44453;BME280;30155;52.164;21.236;2023-02-26T01:02:58;99153.97;;;0.73;83.02
44453;BME280;30155;52.164;21.236;2023-02-26T01:13:31;99168.83;;;0.62;83.32
44453;BME280;30155;52.164;21.236;2023-02-26T01:18:43;99172.83;;;0.59;83.39
44453;BME280;30155;52.164;21.236;2023-02-26T01:23:40;99177.05;;;0.58;83.62
44453;BME280;30155;52.164;21.236;2023-02-26T01:28:35;99183.85;;;0.58;83.69
44453;BME280;30155;52.164;21.236;2023-02-26T01:33:35;99196.36;;;0.59;83.74
44453;BME280;30155;52.164;21.236;2023-02-26T01:49:14;99235.09;;;0.45;83.45
44453;BME280;30155;52.164;21.236;2023-02-26T01:54:07;99242.06;;;0.45;83.18
44453;BME280;30155;52.164;21.236;2023-02-26T01:59:02;99256.52;;;0.44;82.78
44453;BME280;30155;52.164;21.236;2023-02-26T02:03:56;99269.77;;;0.42;83.05
44453;BME280;30155;52.164;21.236;2023-02-26T02:08:50;99278.37;;;0.39;82.24
44453;BME280;30155;52.164;21.236;2023-02-26T02:19:52;99301.08;;;0.35;82.32
44453;BME280;30155;52.164;21.236;2023-02-26T02:24:14;99311.27;;;0.34;82.55
44453;BME280;30155;52.164;21.236;2023-02-26T02:29:35;99312.96;;;0.34;81.93
44453;BME280;30155;52.164;21.236;2023-02-26T02:34:35;99319.33;;;0.31;81.80
44453;BME280;30155;52.164;21.236;2023-02-26T02:39:37;99328.33;;;0.30;81.50
44453;BME280;30155;52.164;21.236;2023-02-26T02:44:35;99340.58;;;0.29;81.62
44453;BME280;30155;52.164;21.236;2023-02-26T02:49:38;99345.35;;;0.29;81.12
44453;BME280;30155;52.164;21.236;2023-02-26T02:54:48;99353.11;;;0.27;81.30
44453;BME280;30155;52.164;21.236;2023-02-26T02:59:45;99360.73;;;0.26;81.29
44453;BME280;30155;52.164;21.236;2023-02-26T03:04:40;99375.19;;;0.24;80.98
44453;BME280;30155;52.164;21.236;2023-02-26T03:09:34;99387.30;;;0.20;80.38
44453;BME280;30155;52.164;21.236;2023-02-26T03:14:28;99398.98;;;0.18;80.50
44453;BME280;30155;52.164;21.236;2023-02-26T03:19:37;99411.91;;;0.18;80.24
44453;BME280;30155;52.164;21.236;2023-02-26T03:25:07;99421.23;;;0.17;80.36
44453;BME280;30155;52.164;21.236;2023-02-26T03:30:10;99430.17;;;0.19;80.25
44453;BME280;30155;52.164;21.236;2023-02-26T03:35:14;99443.77;;;0.22;80.68
44453;BME280;30155;52.164;21.236;2023-02-26T03:40:36;99449.89;;;0.22;80.19
44453;BME280;30155;52.164;21.236;2023-02-26T03:45:36;99455.48;;;0.21;80.39
44453;BME280;30155;52.164;21.236;2023-02-26T03:50:34;99464.73;;;0.22;80.41
44453;BME280;30155;52.164;21.236;2023-02-26T03:56:01;99474.13;;;0.23;80.55
44453;BME280;30155;52.164;21.236;2023-02-26T04:01:18;99482.30;;;0.22;80.47
44453;BME280;30155;52.164;21.236;2023-02-26T04:06:12;99486.02;;;0.22;80.37
44453;BME280;30155;52.164;21.236;2023-02-26T04:11:17;99496.05;;;0.21;80.33
44453;BME280;30155;52.164;21.236;2023-02-26T04:16:14;99508.98;;;0.20;79.77
44453;BME280;30155;52.164;21.236;2023-02-26T04:21:12;99517.23;;;0.17;79.44
44453;BME280;30155;52.164;21.236;2023-02-26T04:26:06;99520.70;;;0.14;79.51
44453;BME280;30155;52.164;21.236;2023-02-26T04:31:03;99525.60;;;0.14;79.36
44453;BME280;30155;52.164;21.236;2023-02-26T04:35:56;99528.80;;;0.13;78.73
44453;BME280;30155;52.164;21.236;2023-02-26T04:40:50;99539.66;;;0.12;78.93
44453;BME280;30155;52.164;21.236;2023-02-26T04:45:47;99541.50;;;0.11;78.81
44453;BME280;30155;52.164;21.236;2023-02-26T04:50:40;99552.44;;;0.12;78.81
44453;BME280;30155;52.164;21.236;2023-02-26T04:55:34;99557.20;;;0.12;78.97
44453;BME280;30155;52.164;21.236;2023-02-26T05:00:29;99558.86;;;0.11;78.45
44453;BME280;30155;52.164;21.236;2023-02-26T05:05:22;99570.25;;;0.10;78.55
44453;BME280;30155;52.164;21.236;2023-02-26T05:10:16;99573.98;;;0.09;78.58
44453;BME280;30155;52.164;21.236;2023-02-26T05:15:09;99584.80;;;0.07;78.50
44453;BME280;30155;52.164;21.236;2023-02-26T05:20:04;99590.47;;;0.04;78.33
44453;BME280;30155;52.164;21.236;2023-02-26T05:25:01;99600.35;;;0.05;78.29
44453;BME280;30155;52.164;21.236;2023-02-26T05:29:55;99612.27;;;0.04;78.46
44453;BME280;30155;52.164;21.236;2023-02-26T05:34:48;99626.34;;;0.02;78.16
44453;BME280;30155;52.164;21.236;2023-02-26T05:39:41;99635.45;;;0.00;78.35
44453;BME280;30155;52.164;21.236;2023-02-26T05:44:34;99644.44;;;-0.02;78.40
44453;BME280;30155;52.164;21.236;2023-02-26T05:49:27;99655.17;;;-0.02;78.55
44453;BME280;30155;52.164;21.236;2023-02-26T05:54:22;99666.04;;;-0.02;78.25
44453;BME280;30155;52.164;21.236;2023-02-26T05:59:15;99676.94;;;-0.02;78.00
44453;BME280;30155;52.164;21.236;2023-02-26T06:04:08;99686.50;;;-0.02;78.39
44453;BME280;30155;52.164;21.236;2023-02-26T06:09:01;99692.81;;;-0.02;78.14
44453;BME280;30155;52.164;21.236;2023-02-26T06:13:56;99698.96;;;-0.01;78.48
44453;BME280;30155;52.164;21.236;2023-02-26T06:18:49;99707.17;;;-0.04;78.44
44453;BME280;30155;52.164;21.236;2023-02-26T06:23:42;99715.60;;;-0.03;78.56
44453;BME280;30155;52.164;21.236;2023-02-26T06:28:36;99728.32;;;-0.04;78.42
44453;BME280;30155;52.164;21.236;2023-02-26T06:33:29;99736.00;;;-0.03;78.68
44453;BME280;30155;52.164;21.236;2023-02-26T06:38:22;99750.95;;;-0.04;78.28
44453;BME280;30155;52.164;21.236;2023-02-26T06:43:14;99764.27;;;-0.08;77.75
44453;BME280;30155;52.164;21.236;2023-02-26T06:48:07;99776.10;;;-0.13;77.35
44453;BME280;30155;52.164;21.236;2023-02-26T06:53:04;99787.90;;;-0.16;77.17
44453;BME280;30155;52.164;21.236;2023-02-26T06:57:58;99799.58;;;-0.18;76.62
44453;BME280;30155;52.164;21.236;2023-02-26T07:02:51;99815.20;;;-0.19;76.67
44453;BME280;30155;52.164;21.236;2023-02-26T07:07:45;99826.45;;;-0.19;76.38
44453;BME280;30155;52.164;21.236;2023-02-26T07:12:38;99830.85;;;-0.19;76.28
44453;BME280;30155;52.164;21.236;2023-02-26T07:17:31;99843.11;;;-0.20;75.98
44453;BME280;30155;52.164;21.236;2023-02-26T07:22:24;99848.42;;;-0.19;75.68
44453;BME280;30155;52.164;21.236;2023-02-26T07:27:17;99856.15;;;-0.17;75.64
44453;BME280;30155;52.164;21.236;2023-02-26T07:32:10;99861.67;;;-0.12;75.49
44453;BME280;30155;52.164;21.236;2023-02-26T07:37:03;99871.69;;;-0.02;75.62
44453;BME280;30155;52.164;21.236;2023-02-26T07:41:56;99883.80;;;0.14;75.27
44453;BME280;30155;52.164;21.236;2023-02-26T07:46:52;99886.09;;;0.26;74.73
44453;BME280;30155;52.164;21.236;2023-02-26T07:51:45;99892.56;;;0.38;74.60
44453;BME280;30155;52.164;21.236;2023-02-26T07:56:39;99903.36;;;0.51;74.32
44453;BME280;30155;52.164;21.236;2023-02-26T08:01:33;99912.61;;;0.60;74.06
44453;BME280;30155;52.164;21.236;2023-02-26T08:06:27;99918.79;;;0.68;73.67
44453;BME280;30155;52.164;21.236;2023-02-26T08:11:20;99921.31;;;0.71;73.03
44453;BME280;30155;52.164;21.236;2023-02-26T08:16:13;99927.56;;;0.82;73.23
44453;BME280;30155;52.164;21.236;2023-02-26T08:21:06;99938.31;;;0.94;72.47
44453;BME280;30155;52.164;21.236;2023-02-26T08:26:00;99944.88;;;1.00;71.97
44453;BME280;30155;52.164;21.236;2023-02-26T08:30:53;99950.21;;;1.08;71.67
44453;BME280;30155;52.164;21.236;2023-02-26T08:35:48;99953.52;;;1.18;71.31
44453;BME280;30155;52.164;21.236;2023-02-26T08:40:41;99964.08;;;1.26;71.47
44453;BME280;30155;52.164;21.236;2023-02-26T08:45:34;99975.07;;;1.31;71.41
44453;BME280;30155;52.164;21.236;2023-02-26T08:50:27;99986.38;;;1.32;71.23
44453;BME280;30155;52.164;21.236;2023-02-26T08:55:20;99998.58;;;1.30;70.92
44453;BME280;30155;52.164;21.236;2023-02-26T09:00:14;100014.03;;;1.24;70.88
44453;BME280;30155;52.164;21.236;2023-02-26T09:05:09;100027.23;;;1.10;70.72
44453;BME280;30155;52.164;21.236;2023-02-26T09:10:04;100036.27;;;0.98;70.71
44453;BME280;30155;52.164;21.236;2023-02-26T09:14:57;100052.75;;;0.92;70.71
44453;BME280;30155;52.164;21.236;2023-02-26T09:19:50;100064.83;;;0.92;71.13
44453;BME280;30155;52.164;21.236;2023-02-26T09:24:43;100071.91;;;0.86;71.11
44453;BME280;30155;52.164;21.236;2023-02-26T09:29:36;100076.63;;;0.77;70.77
44453;BME280;30155;52.164;21.236;2023-02-26T09:34:29;100081.03;;;0.72;71.11
44453;BME280;30155;52.164;21.236;2023-02-26T09:39:22;100085.84;;;0.77;70.96
44453;BME280;30155;52.164;21.236;2023-02-26T09:44:27;100097.91;;;0.87;70.66
44453;BME280;30155;52.164;21.236;2023-02-26T09:54:31;100110.42;;;0.85;70.13
44453;BME280;30155;52.164;21.236;2023-02-26T09:59:29;100117.55;;;0.84;70.57
44453;BME280;30155;52.164;21.236;2023-02-26T10:04:50;100123.52;;;0.80;70.49
44453;BME280;30155;52.164;21.236;2023-02-26T10:20:12;100151.34;;;0.84;70.07
44453;BME280;30155;52.164;21.236;2023-02-26T10:25:15;100154.31;;;0.79;70.08
44453;BME280;30155;52.164;21.236;2023-02-26T10:30:18;100158.80;;;0.79;70.43
44453;BME280;30155;52.164;21.236;2023-02-26T10:35:16;100169.48;;;0.82;70.15
44453;BME280;30155;52.164;21.236;2023-02-26T10:40:23;100172.95;;;0.83;70.26
44453;BME280;30155;52.164;21.236;2023-02-26T10:45:32;100186.30;;;0.87;70.35
44453;BME280;30155;52.164;21.236;2023-02-26T10:50:30;100195.69;;;0.87;70.30
44453;BME280;30155;52.164;21.236;2023-02-26T10:56:13;100202.77;;;0.86;70.04
44453;BME280;30155;52.164;21.236;2023-02-26T11:00:47;100206.81;;;0.84;70.49
44453;BME280;30155;52.164;21.236;2023-02-26T11:05:44;100211.23;;;0.77;70.58
44453;BME280;30155;52.164;21.236;2023-02-26T11:10:46;100216.68;;;0.70;70.21
44453;BME280;30155;52.164;21.236;2023-02-26T11:15:41;100223.69;;;0.63;70.17
44453;BME280;30155;52.164;21.236;2023-02-26T11:20:40;100232.34;;;0.59;70.33
44453;BME280;30155;52.164;21.236;2023-02-26T11:25:34;100236.75;;;0.61;70.35
44453;BME280;30155;52.164;21.236;2023-02-26T11:30:31;100243.80;;;0.69;70.29
44453;BME280;30155;52.164;21.236;2023-02-26T11:35:26;100248.13;;;0.82;70.19
44453;BME280;30155;52.164;21.236;2023-02-26T11:40:30;100249.14;;;0.88;69.70
44453;BME280;30155;52.164;21.236;2023-02-26T11:45:25;100249.81;;;0.99;69.39
44453;BME280;30155;52.164;21.236;2023-02-26T11:50:20;100255.89;;;1.22;69.16
44453;BME280;30155;52.164;21.236;2023-02-26T11:55:22;100264.86;;;1.47;69.13
44453;BME280;30155;52.164;21.236;2023-02-26T12:00:23;100272.63;;;1.67;68.27
44453;BME280;30155;52.164;21.236;2023-02-26T12:05:16;100278.31;;;1.79;68.18
44453;BME280;30155;52.164;21.236;2023-02-26T12:10:17;100282.21;;;1.86;67.47
44453;BME280;30155;52.164;21.236;2023-02-26T12:15:26;100290.77;;;1.75;67.14
44453;BME280;30155;52.164;21.236;2023-02-26T12:20:28;100299.48;;;1.64;66.74
44453;BME280;30155;52.164;21.236;2023-02-26T12:45:36;100333.32;;;1.35;66.57
44453;BME280;30155;52.164;21.236;2023-02-26T13:06:04;100357.23;;;1.42;66.99
44453;BME280;30155;52.164;21.236;2023-02-26T13:16:53;100359.23;;;1.52;66.95
44453;BME280;30155;52.164;21.236;2023-02-26T13:21:41;100362.33;;;1.67;67.50
44453;BME280;30155;52.164;21.236;2023-02-26T13:26:37;100371.79;;;1.83;67.60
44453;BME280;30155;52.164;21.236;2023-02-26T13:31:36;100374.39;;;1.84;67.46
44453;BME280;30155;52.164;21.236;2023-02-26T13:36:32;100375.09;;;1.77;66.98
44453;BME280;30155;52.164;21.236;2023-02-26T13:41:43;100386.34;;;1.69;67.36
44453;BME280;30155;52.164;21.236;2023-02-26T13:51:44;100395.69;;;1.50;67.27
44453;BME280;30155;52.164;21.236;2023-02-26T14:01:33;100402.70;;;1.68;66.67
44453;BME280;30155;52.164;21.236;2023-02-26T14:26:17;100419.59;;;1.93;65.44
44453;BME280;30155;52.164;21.236;2023-02-26T14:31:17;100422.36;;;1.86;64.64
44453;BME280;30155;52.164;21.236;2023-02-26T14:36:16;100423.77;;;1.77;64.25
44453;BME280;30155;52.164;21.236;2023-02-26T14:46:17;100441.36;;;1.69;64.66
44453;BME280;30155;52.164;21.236;2023-02-26T14:51:36;100451.77;;;1.62;64.52
44453;BME280;30155;52.164;21.236;2023-02-26T15:07:37;100480.31;;;1.47;64.64
44453;BME280;30155;52.164;21.236;2023-02-26T15:12:39;100485.54;;;1.36;64.98
44453;BME280;30155;52.164;21.236;2023-02-26T15:17:46;100486.09;;;1.30;64.84
44453;BME280;30155;52.164;21.236;2023-02-26T15:27:47;100501.60;;;1.20;64.96
44453;BME280;30155;52.164;21.236;2023-02-26T15:32:40;100513.23;;;1.13;65.67
44453;BME280;30155;52.164;21.236;2023-02-26T15:37:33;100517.19;;;1.07;65.80
44453;BME280;30155;52.164;21.236;2023-02-26T15:42:30;100520.48;;;0.98;66.08
44453;BME280;30155;52.164;21.236;2023-02-26T15:47:27;100529.94;;;0.90;66.44
44453;BME280;30155;52.164;21.236;2023-02-26T15:52:22;100532.46;;;0.80;66.81
44453;BME280;30155;52.164;21.236;2023-02-26T15:57:16;100534.44;;;0.65;66.71
44453;BME280;30155;52.164;21.236;2023-02-26T16:02:12;100548.56;;;0.46;67.34
44453;BME280;30155;52.164;21.236;2023-02-26T16:07:04;100553.95;;;0.26;68.11
44453;BME280;30155;52.164;21.236;2023-02-26T16:11:59;100559.49;;;0.09;68.30
44453;BME280;30155;52.164;21.236;2023-02-26T16:16:54;100567.64;;;-0.10;68.88
44453;BME280;30155;52.164;21.236;2023-02-26T16:21:48;100573.00;;;-0.20;69.32
44453;BME280;30155;52.164;21.236;2023-02-26T16:26:48;100586.70;;;-0.27;69.37
44453;BME280;30155;52.164;21.236;2023-02-26T16:31:49;100588.57;;;-0.37;69.30
44453;BME280;30155;52.164;21.236;2023-02-26T16:36:43;100601.52;;;-0.45;69.84
44453;BME280;30155;52.164;21.236;2023-02-26T16:41:38;100611.67;;;-0.46;69.86
44453;BME280;30155;52.164;21.236;2023-02-26T16:46:45;100617.55;;;-0.45;70.09
44453;BME280;30155;52.164;21.236;2023-02-26T16:51:39;100623.21;;;-0.47;70.33
44453;BME280;30155;52.164;21.236;2023-02-26T16:56:39;100628.29;;;-0.53;70.62
44453;BME280;30155;52.164;21.236;2023-02-26T17:01:49;100628.29;;;-0.56;71.15
44453;BME280;30155;52.164;21.236;2023-02-26T17:06:43;100639.30;;;-0.57;71.43
44453;BME280;30155;52.164;21.236;2023-02-26T17:11:39;100643.70;;;-0.57;71.61
44453;BME280;30155;52.164;21.236;2023-02-26T17:16:36;100645.61;;;-0.60;71.74
44453;BME280;30155;52.164;21.236;2023-02-26T17:21:30;100651.57;;;-0.62;71.82
44453;BME280;30155;52.164;21.236;2023-02-26T17:26:23;100660.98;;;-0.64;71.95
44453;BME280;30155;52.164;21.236;2023-02-26T17:31:16;100670.69;;;-0.70;71.73
44453;BME280;30155;52.164;21.236;2023-02-26T17:36:13;100682.18;;;-0.77;71.83
44453;BME280;30155;52.164;21.236;2023-02-26T17:41:07;100688.85;;;-0.80;72.23
44453;BME280;30155;52.164;21.236;2023-02-26T17:46:02;100697.53;;;-0.82;72.18
44453;BME280;30155;52.164;21.236;2023-02-26T17:50:56;100703.15;;;-0.85;72.42
44453;BME280;30155;52.164;21.236;2023-02-26T17:55:51;100712.77;;;-0.86;72.62
44453;BME280;30155;52.164;21.236;2023-02-26T18:00:44;100717.99;;;-0.87;72.79
44453;BME280;30155;52.164;21.236;2023-02-26T18:05:40;100725.80;;;-0.87;72.95
44453;BME280;30155;52.164;21.236;2023-02-26T18:10:33;100729.36;;;-0.88;73.32
44453;BME280;30155;52.164;21.236;2023-02-26T18:15:26;100731.02;;;-0.88;73.48
44453;BME280;30155;52.164;21.236;2023-02-26T18:20:20;100736.80;;;-0.86;73.64
44453;BME280;30155;52.164;21.236;2023-02-26T18:25:14;100737.84;;;-0.85;73.73
44453;BME280;30155;52.164;21.236;2023-02-26T18:30:18;100739.09;;;-0.87;73.75
44453;BME280;30155;52.164;21.236;2023-02-26T18:35:12;100745.17;;;-0.85;74.12
44453;BME280;30155;52.164;21.236;2023-02-26T18:40:15;100750.99;;;-0.79;74.37
44453;BME280;30155;52.164;21.236;2023-02-26T18:45:09;100757.70;;;-0.74;74.35
44453;BME280;30155;52.164;21.236;2023-02-26T18:50:03;100771.38;;;-0.74;74.32
44453;BME280;30155;52.164;21.236;2023-02-26T18:54:57;100777.48;;;-0.71;74.45
44453;BME280;30155;52.164;21.236;2023-02-26T18:59:50;100783.91;;;-0.72;74.57
44453;BME280;30155;52.164;21.236;2023-02-26T19:04:43;100785.36;;;-0.71;74.76
44453;BME280;30155;52.164;21.236;2023-02-26T19:09:37;100794.48;;;-0.69;74.87
44453;BME280;30155;52.164;21.236;2023-02-26T19:14:30;100804.79;;;-0.68;74.91
44453;BME280;30155;52.164;21.236;2023-02-26T19:19:23;100809.71;;;-0.71;74.97
44453;BME280;30155;52.164;21.236;2023-02-26T19:24:16;100812.23;;;-0.71;74.97
44453;BME280;30155;52.164;21.236;2023-02-26T19:29:13;100811.13;;;-0.70;75.12
44453;BME280;30155;52.164;21.236;2023-02-26T19:34:07;100812.27;;;-0.68;75.26
44453;BME280;30155;52.164;21.236;2023-02-26T19:39:02;100816.61;;;-0.66;75.45
44453;BME280;30155;52.164;21.236;2023-02-26T19:43:56;100821.29;;;-0.68;75.29
44453;BME280;30155;52.164;21.236;2023-02-26T19:48:49;100823.89;;;-0.67;75.36
44453;BME280;30155;52.164;21.236;2023-02-26T19:53:42;100832.33;;;-0.66;75.18
44453;BME280;30155;52.164;21.236;2023-02-26T19:58:35;100843.74;;;-0.63;75.08
44453;BME280;30155;52.164;21.236;2023-02-26T20:03:28;100847.97;;;-0.61;74.84
44453;BME280;30155;52.164;21.236;2023-02-26T20:08:23;100856.62;;;-0.59;74.92
44453;BME280;30155;52.164;21.236;2023-02-26T20:13:18;100856.42;;;-0.59;74.68
44453;BME280;30155;52.164;21.236;2023-02-26T20:18:12;100866.61;;;-0.57;74.87
44453;BME280;30155;52.164;21.236;2023-02-26T20:23:05;100869.20;;;-0.56;74.76
44453;BME280;30155;52.164;21.236;2023-02-26T20:27:57;100869.05;;;-0.56;74.76
44453;BME280;30155;52.164;21.236;2023-02-26T20:32:50;100877.15;;;-0.54;74.67
44453;BME280;30155;52.164;21.236;2023-02-26T20:37:44;100881.16;;;-0.53;74.81
44453;BME280;30155;52.164;21.236;2023-02-26T20:42:37;100888.10;;;-0.54;75.06
44453;BME280;30155;52.164;21.236;2023-02-26T20:47:30;100886.16;;;-0.55;75.14
44453;BME280;30155;52.164;21.236;2023-02-26T20:52:22;100893.92;;;-0.56;75.11
44453;BME280;30155;52.164;21.236;2023-02-26T20:57:15;100896.57;;;-0.54;75.10
44453;BME280;30155;52.164;21.236;2023-02-26T21:02:10;100895.79;;;-0.53;75.13
44453;BME280;30155;52.164;21.236;2023-02-26T21:07:04;100900.58;;;-0.50;75.21
44453;BME280;30155;52.164;21.236;2023-02-26T21:12:08;100900.43;;;-0.47;75.06
44453;BME280;30155;52.164;21.236;2023-02-26T21:17:03;100904.31;;;-0.45;74.72
44453;BME280;30155;52.164;21.236;2023-02-26T21:21:57;100902.90;;;-0.44;74.68
44453;BME280;30155;52.164;21.236;2023-02-26T21:26:51;100910.20;;;-0.41;74.64
44453;BME280;30155;52.164;21.236;2023-02-26T21:31:44;100917.44;;;-0.40;74.30
44453;BME280;30155;52.164;21.236;2023-02-26T21:36:37;100926.34;;;-0.36;74.10
44453;BME280;30155;52.164;21.236;2023-02-26T21:41:32;100934.48;;;-0.34;74.13
44453;BME280;30155;52.164;21.236;2023-02-26T21:46:27;100933.95;;;-0.31;74.00
44453;BME280;30155;52.164;21.236;2023-02-26T21:51:19;100936.95;;;-0.30;73.74
44453;BME280;30155;52.164;21.236;2023-02-26T21:56:12;100944.23;;;-0.28;73.58
44453;BME280;30155;52.164;21.236;2023-02-26T22:01:05;100945.31;;;-0.27;73.42
44453;BME280;30155;52.164;21.236;2023-02-26T22:06:00;100948.79;;;-0.26;73.33
44453;BME280;30155;52.164;21.236;2023-02-26T22:10:53;100953.11;;;-0.25;73.25
44453;BME280;30155;52.164;21.236;2023-02-26T22:15:47;100959.50;;;-0.24;73.31
44453;BME280;30155;52.164;21.236;2023-02-26T22:20:40;100960.80;;;-0.22;73.08
44453;BME280;30155;52.164;21.236;2023-02-26T22:25:33;100971.84;;;-0.20;73.31
44453;BME280;30155;52.164;21.236;2023-02-26T22:30:26;100973.46;;;-0.18;73.21
44453;BME280;30155;52.164;21.236;2023-02-26T22:35:19;100982.92;;;-0.17;73.06
44453;BME280;30155;52.164;21.236;2023-02-26T22:40:12;100984.82;;;-0.17;72.94
44453;BME280;30155;52.164;21.236;2023-02-26T22:45:06;100989.64;;;-0.16;73.22
44453;BME280;30155;52.164;21.236;2023-02-26T22:49:59;100986.40;;;-0.16;72.93
44453;BME280;30155;52.164;21.236;2023-02-26T22:54:52;100991.55;;;-0.16;73.06
44453;BME280;30155;52.164;21.236;2023-02-26T22:59:46;100998.86;;;-0.16;72.82
44453;BME280;30155;52.164;21.236;2023-02-26T23:04:38;101007.77;;;-0.15;72.68
44453;BME280;30155;52.164;21.236;2023-02-26T23:09:31;101011.20;;;-0.15;72.72
44453;BME280;30155;52.164;21.236;2023-02-26T23:14:24;101011.79;;;-0.13;72.79
44453;BME280;30155;52.164;21.236;2023-02-26T23:19:20;101021.09;;;-0.12;72.98
44453;BME280;30155;52.164;21.236;2023-02-26T23:24:15;101023.55;;;-0.11;72.97
44453;BME280;30155;52.164;21.236;2023-02-26T23:29:08;101026.27;;;-0.11;73.10
44453;BME280;30155;52.164;21.236;2023-02-26T23:34:01;101028.04;;;-0.10;73.02
44453;BME280;30155;52.164;21.236;2023-02-26T23:38:55;101030.69;;;-0.09;73.40
44453;BME280;30155;52.164;21.236;2023-02-26T23:43:48;101040.74;;;-0.09;73.32
44453;BME280;30155;52.164;21.236;2023-02-26T23:48:40;101038.69;;;-0.09;73.57
44453;BME280;30155;52.164;21.236;2023-02-26T23:53:34;101039.30;;;-0.10;73.41
44453;BME280;30155;52.164;21.236;2023-02-26T23:58:29;101039.41;;;-0.10;73.45
